sensor_id;sensor_type;location;lat;lon;timestamp;P1;durP1;ratioP1;P2;durP2;ratioP2
80732;SDS011;70130;44.534;18.678;2024-03-23T00:54:01;67.88;;;32.53;;
80732;SDS011;70130;44.534;18.678;2024-03-23T00:56:28;68.10;;;33.33;;
80732;SDS011;70130;44.534;18.678;2024-03-23T00:58:54;89.65;;;39.17;;
80732;SDS011;70130;44.534;18.678;2024-03-23T01:01:20;85.90;;;40.25;;
80732;SDS011;70130;44.534;18.678;2024-03-23T01:03:46;84.25;;;40.15;;
80732;SDS011;70130;44.534;18.678;2024-03-23T01:06:11;79.07;;;39.42;;
80732;SDS011;70130;44.534;18.678;2024-03-23T01:08:37;86.53;;;39.83;;
80732;SDS011;70130;44.534;18.678;2024-03-23T01:11:03;74.47;;;37.15;;
80732;SDS011;70130;44.534;18.678;2024-03-23T01:13:29;71.60;;;33.45;;
80732;SDS011;70130;44.534;18.678;2024-03-23T01:15:55;69.90;;;32.50;;
80732;SDS011;70130;44.534;18.678;2024-03-23T01:18:22;67.53;;;32.83;;
80732;SDS011;70130;44.534;18.678;2024-03-23T01:20:48;72.22;;;33.20;;
80732;SDS011;70130;44.534;18.678;2024-03-23T01:23:14;67.47;;;34.20;;
80732;SDS011;70130;44.534;18.678;2024-03-23T01:25:40;66.55;;;33.03;;
80732;SDS011;70130;44.534;18.678;2024-03-23T01:28:05;67.97;;;32.85;;
80732;SDS011;70130;44.534;18.678;2024-03-23T01:30:32;56.25;;;31.42;;
80732;SDS011;70130;44.534;18.678;2024-03-23T01:32:58;65.82;;;30.40;;
80732;SDS011;70130;44.534;18.678;2024-03-23T01:35:23;58.28;;;27.08;;
80732;SDS011;70130;44.534;18.678;2024-03-23T01:37:49;54.15;;;26.52;;
80732;SDS011;70130;44.534;18.678;2024-03-23T01:40:16;50.95;;;26.20;;
80732;SDS011;70130;44.534;18.678;2024-03-23T01:42:42;51.47;;;27.90;;
80732;SDS011;70130;44.534;18.678;2024-03-23T01:45:07;54.85;;;25.60;;
80732;SDS011;70130;44.534;18.678;2024-03-23T01:47:35;55.60;;;26.83;;
80732;SDS011;70130;44.534;18.678;2024-03-23T01:50:00;55.47;;;27.30;;
80732;SDS011;70130;44.534;18.678;2024-03-23T01:52:26;60.97;;;27.67;;
80732;SDS011;70130;44.534;18.678;2024-03-23T01:54:52;57.22;;;25.85;;
80732;SDS011;70130;44.534;18.678;2024-03-23T01:57:19;60.50;;;29.38;;
80732;SDS011;70130;44.534;18.678;2024-03-23T01:59:46;64.82;;;29.73;;
80732;SDS011;70130;44.534;18.678;2024-03-23T02:02:16;61.08;;;28.63;;
80732;SDS011;70130;44.534;18.678;2024-03-23T02:04:43;59.95;;;30.35;;
80732;SDS011;70130;44.534;18.678;2024-03-23T02:07:09;54.17;;;25.77;;
80732;SDS011;70130;44.534;18.678;2024-03-23T02:09:35;54.30;;;26.40;;
80732;SDS011;70130;44.534;18.678;2024-03-23T02:12:02;52.43;;;24.00;;
80732;SDS011;70130;44.534;18.678;2024-03-23T02:14:28;45.65;;;23.15;;
80732;SDS011;70130;44.534;18.678;2024-03-23T02:16:53;48.67;;;23.85;;
80732;SDS011;70130;44.534;18.678;2024-03-23T02:19:19;53.53;;;25.83;;
80732;SDS011;70130;44.534;18.678;2024-03-23T02:21:45;53.40;;;26.92;;
80732;SDS011;70130;44.534;18.678;2024-03-23T02:24:12;53.25;;;27.02;;
80732;SDS011;70130;44.534;18.678;2024-03-23T02:26:37;53.35;;;25.70;;
80732;SDS011;70130;44.534;18.678;2024-03-23T02:29:03;52.88;;;23.63;;
80732;SDS011;70130;44.534;18.678;2024-03-23T02:31:29;54.53;;;24.85;;
80732;SDS011;70130;44.534;18.678;2024-03-23T02:33:54;55.65;;;25.92;;
80732;SDS011;70130;44.534;18.678;2024-03-23T02:36:20;53.10;;;26.08;;
80732;SDS011;70130;44.534;18.678;2024-03-23T02:38:46;51.45;;;24.60;;
80732;SDS011;70130;44.534;18.678;2024-03-23T02:41:12;47.47;;;24.98;;
80732;SDS011;70130;44.534;18.678;2024-03-23T02:43:38;57.53;;;27.38;;
80732;SDS011;70130;44.534;18.678;2024-03-23T02:46:04;67.00;;;28.90;;
80732;SDS011;70130;44.534;18.678;2024-03-23T02:48:30;68.13;;;29.95;;
80732;SDS011;70130;44.534;18.678;2024-03-23T02:50:55;63.88;;;28.15;;
80732;SDS011;70130;44.534;18.678;2024-03-23T02:53:21;62.97;;;27.77;;
80732;SDS011;70130;44.534;18.678;2024-03-23T02:55:46;55.50;;;27.38;;
80732;SDS011;70130;44.534;18.678;2024-03-23T02:58:12;53.55;;;28.13;;
80732;SDS011;70130;44.534;18.678;2024-03-23T03:00:37;57.83;;;27.87;;
80732;SDS011;70130;44.534;18.678;2024-03-23T03:03:03;55.30;;;27.80;;
80732;SDS011;70130;44.534;18.678;2024-03-23T03:05:29;64.85;;;29.65;;
80732;SDS011;70130;44.534;18.678;2024-03-23T03:07:55;68.65;;;31.52;;
80732;SDS011;70130;44.534;18.678;2024-03-23T03:10:20;75.07;;;32.40;;
80732;SDS011;70130;44.534;18.678;2024-03-23T03:12:46;74.20;;;36.93;;
80732;SDS011;70130;44.534;18.678;2024-03-23T03:15:12;73.75;;;35.75;;
80732;SDS011;70130;44.534;18.678;2024-03-23T03:17:38;69.43;;;32.37;;
80732;SDS011;70130;44.534;18.678;2024-03-23T03:20:03;60.55;;;29.15;;
80732;SDS011;70130;44.534;18.678;2024-03-23T03:22:30;67.35;;;30.85;;
80732;SDS011;70130;44.534;18.678;2024-03-23T03:24:55;64.90;;;28.92;;
80732;SDS011;70130;44.534;18.678;2024-03-23T03:27:21;66.05;;;29.35;;
80732;SDS011;70130;44.534;18.678;2024-03-23T03:29:48;56.63;;;28.10;;
80732;SDS011;70130;44.534;18.678;2024-03-23T03:32:13;71.10;;;31.25;;
80732;SDS011;70130;44.534;18.678;2024-03-23T03:34:39;59.63;;;29.27;;
80732;SDS011;70130;44.534;18.678;2024-03-23T03:37:05;54.33;;;25.63;;
80732;SDS011;70130;44.534;18.678;2024-03-23T03:39:30;51.87;;;25.57;;
80732;SDS011;70130;44.534;18.678;2024-03-23T03:41:56;58.17;;;25.83;;
80732;SDS011;70130;44.534;18.678;2024-03-23T03:44:21;50.37;;;26.13;;
80732;SDS011;70130;44.534;18.678;2024-03-23T03:46:47;56.60;;;25.33;;
80732;SDS011;70130;44.534;18.678;2024-03-23T03:49:13;50.63;;;25.10;;
80732;SDS011;70130;44.534;18.678;2024-03-23T03:51:38;51.43;;;24.73;;
80732;SDS011;70130;44.534;18.678;2024-03-23T03:54:04;56.57;;;25.67;;
80732;SDS011;70130;44.534;18.678;2024-03-23T03:56:29;48.10;;;24.33;;
80732;SDS011;70130;44.534;18.678;2024-03-23T03:58:55;45.57;;;22.73;;
80732;SDS011;70130;44.534;18.678;2024-03-23T04:01:21;46.27;;;22.80;;
80732;SDS011;70130;44.534;18.678;2024-03-23T04:03:46;46.13;;;22.53;;
80732;SDS011;70130;44.534;18.678;2024-03-23T04:06:12;44.20;;;22.00;;
80732;SDS011;70130;44.534;18.678;2024-03-23T04:08:44;48.60;;;23.93;;
80732;SDS011;70130;44.534;18.678;2024-03-23T04:11:09;49.10;;;24.83;;
80732;SDS011;70130;44.534;18.678;2024-03-23T04:13:35;46.03;;;23.83;;
80732;SDS011;70130;44.534;18.678;2024-03-23T04:16:00;52.57;;;26.03;;
80732;SDS011;70130;44.534;18.678;2024-03-23T04:18:26;53.43;;;27.40;;
80732;SDS011;70130;44.534;18.678;2024-03-23T04:20:51;54.37;;;30.40;;
80732;SDS011;70130;44.534;18.678;2024-03-23T04:23:17;61.30;;;30.87;;
80732;SDS011;70130;44.534;18.678;2024-03-23T04:25:43;59.40;;;31.07;;
80732;SDS011;70130;44.534;18.678;2024-03-23T04:28:09;61.33;;;30.43;;
80732;SDS011;70130;44.534;18.678;2024-03-23T04:30:34;74.53;;;38.43;;
80732;SDS011;70130;44.534;18.678;2024-03-23T04:33:00;79.63;;;40.17;;
80732;SDS011;70130;44.534;18.678;2024-03-23T04:35:26;74.07;;;35.37;;
80732;SDS011;70130;44.534;18.678;2024-03-23T04:37:53;52.20;;;29.57;;
80732;SDS011;70130;44.534;18.678;2024-03-23T04:40:19;51.50;;;26.57;;
80732;SDS011;70130;44.534;18.678;2024-03-23T04:42:45;45.67;;;22.47;;
80732;SDS011;70130;44.534;18.678;2024-03-23T04:45:11;39.80;;;21.13;;
80732;SDS011;70130;44.534;18.678;2024-03-23T04:47:37;44.83;;;20.97;;
80732;SDS011;70130;44.534;18.678;2024-03-23T04:50:03;44.83;;;21.40;;
80732;SDS011;70130;44.534;18.678;2024-03-23T04:52:29;44.67;;;22.20;;
80732;SDS011;70130;44.534;18.678;2024-03-23T04:54:55;44.37;;;21.03;;
80732;SDS011;70130;44.534;18.678;2024-03-23T04:57:21;50.23;;;22.33;;
80732;SDS011;70130;44.534;18.678;2024-03-23T04:59:47;46.37;;;21.43;;
80732;SDS011;70130;44.534;18.678;2024-03-23T05:02:13;39.67;;;19.83;;
80732;SDS011;70130;44.534;18.678;2024-03-23T05:04:40;42.10;;;20.23;;
80732;SDS011;70130;44.534;18.678;2024-03-23T05:07:06;51.03;;;23.67;;
80732;SDS011;70130;44.534;18.678;2024-03-23T05:09:32;47.70;;;24.60;;
80732;SDS011;70130;44.534;18.678;2024-03-23T05:12:01;55.50;;;26.80;;
80732;SDS011;70130;44.534;18.678;2024-03-23T05:14:27;47.97;;;24.57;;
80732;SDS011;70130;44.534;18.678;2024-03-23T05:16:53;48.37;;;24.97;;
80732;SDS011;70130;44.534;18.678;2024-03-23T05:19:19;51.37;;;24.60;;
80732;SDS011;70130;44.534;18.678;2024-03-23T05:21:45;41.83;;;23.30;;
80732;SDS011;70130;44.534;18.678;2024-03-23T05:24:11;44.87;;;23.80;;
80732;SDS011;70130;44.534;18.678;2024-03-23T05:26:37;45.27;;;24.60;;
80732;SDS011;70130;44.534;18.678;2024-03-23T05:29:03;50.40;;;25.47;;
80732;SDS011;70130;44.534;18.678;2024-03-23T05:31:29;52.83;;;25.00;;
80732;SDS011;70130;44.534;18.678;2024-03-23T05:33:56;51.33;;;25.10;;
80732;SDS011;70130;44.534;18.678;2024-03-23T05:36:22;46.10;;;24.43;;
80732;SDS011;70130;44.534;18.678;2024-03-23T05:38:49;46.40;;;23.00;;
80732;SDS011;70130;44.534;18.678;2024-03-23T05:41:15;39.80;;;21.47;;
80732;SDS011;70130;44.534;18.678;2024-03-23T05:43:40;35.27;;;19.20;;
80732;SDS011;70130;44.534;18.678;2024-03-23T05:46:06;43.13;;;19.57;;
80732;SDS011;70130;44.534;18.678;2024-03-23T05:48:35;49.43;;;22.43;;
80732;SDS011;70130;44.534;18.678;2024-03-23T05:51:01;51.30;;;24.00;;
80732;SDS011;70130;44.534;18.678;2024-03-23T05:53:27;47.50;;;21.67;;
80732;SDS011;70130;44.534;18.678;2024-03-23T05:56:01;41.30;;;20.70;;
80732;SDS011;70130;44.534;18.678;2024-03-23T05:58:31;38.17;;;19.07;;
80732;SDS011;70130;44.534;18.678;2024-03-23T06:00:57;35.00;;;19.13;;
80732;SDS011;70130;44.534;18.678;2024-03-23T06:03:30;35.58;;;19.60;;
80732;SDS011;70130;44.534;18.678;2024-03-23T06:05:55;38.90;;;19.50;;
80732;SDS011;70130;44.534;18.678;2024-03-23T06:08:21;35.20;;;17.53;;
80732;SDS011;70130;44.534;18.678;2024-03-23T06:10:49;41.10;;;19.35;;
80732;SDS011;70130;44.534;18.678;2024-03-23T06:13:15;40.35;;;19.35;;
80732;SDS011;70130;44.534;18.678;2024-03-23T06:15:42;43.13;;;21.77;;
80732;SDS011;70130;44.534;18.678;2024-03-23T06:18:07;42.50;;;22.50;;
80732;SDS011;70130;44.534;18.678;2024-03-23T06:20:33;47.03;;;24.15;;
80732;SDS011;70130;44.534;18.678;2024-03-23T06:23:00;42.92;;;21.92;;
80732;SDS011;70130;44.534;18.678;2024-03-23T06:25:27;35.17;;;20.05;;
80732;SDS011;70130;44.534;18.678;2024-03-23T06:27:52;39.90;;;18.67;;
80732;SDS011;70130;44.534;18.678;2024-03-23T06:30:18;37.40;;;17.48;;
80732;SDS011;70130;44.534;18.678;2024-03-23T06:32:43;32.38;;;16.40;;
80732;SDS011;70130;44.534;18.678;2024-03-23T06:35:09;29.45;;;16.23;;
80732;SDS011;70130;44.534;18.678;2024-03-23T06:37:38;34.17;;;17.83;;
80732;SDS011;70130;44.534;18.678;2024-03-23T06:40:04;35.58;;;17.58;;
80732;SDS011;70130;44.534;18.678;2024-03-23T06:42:33;30.35;;;18.00;;
80732;SDS011;70130;44.534;18.678;2024-03-23T06:44:59;33.42;;;18.20;;
80732;SDS011;70130;44.534;18.678;2024-03-23T06:47:25;30.33;;;17.20;;
80732;SDS011;70130;44.534;18.678;2024-03-23T06:49:50;40.95;;;19.55;;
80732;SDS011;70130;44.534;18.678;2024-03-23T06:52:16;38.83;;;20.15;;
80732;SDS011;70130;44.534;18.678;2024-03-23T06:54:42;38.08;;;21.05;;
80732;SDS011;70130;44.534;18.678;2024-03-23T06:57:10;39.10;;;21.67;;
80732;SDS011;70130;44.534;18.678;2024-03-23T06:59:40;40.95;;;22.48;;
80732;SDS011;70130;44.534;18.678;2024-03-23T07:02:05;38.25;;;20.42;;
80732;SDS011;70130;44.534;18.678;2024-03-23T07:04:33;47.10;;;23.30;;
80732;SDS011;70130;44.534;18.678;2024-03-23T07:07:00;43.40;;;22.25;;
80732;SDS011;70130;44.534;18.678;2024-03-23T07:09:27;46.08;;;22.60;;
80732;SDS011;70130;44.534;18.678;2024-03-23T07:11:54;48.78;;;23.90;;
80732;SDS011;70130;44.534;18.678;2024-03-23T07:14:21;48.63;;;25.17;;
80732;SDS011;70130;44.534;18.678;2024-03-23T07:16:46;44.70;;;23.75;;
80732;SDS011;70130;44.534;18.678;2024-03-23T07:19:14;42.42;;;21.83;;
80732;SDS011;70130;44.534;18.678;2024-03-23T07:21:41;42.03;;;22.00;;
80732;SDS011;70130;44.534;18.678;2024-03-23T07:24:07;35.08;;;19.20;;
80732;SDS011;70130;44.534;18.678;2024-03-23T07:26:33;32.97;;;18.77;;
80732;SDS011;70130;44.534;18.678;2024-03-23T07:28:59;36.72;;;19.52;;
80732;SDS011;70130;44.534;18.678;2024-03-23T07:31:24;34.58;;;20.17;;
80732;SDS011;70130;44.534;18.678;2024-03-23T07:33:50;36.58;;;19.35;;
80732;SDS011;70130;44.534;18.678;2024-03-23T07:36:16;35.95;;;20.33;;
80732;SDS011;70130;44.534;18.678;2024-03-23T07:38:42;38.15;;;19.05;;
80732;SDS011;70130;44.534;18.678;2024-03-23T07:41:10;28.58;;;17.23;;
80732;SDS011;70130;44.534;18.678;2024-03-23T07:43:40;30.92;;;16.58;;
80732;SDS011;70130;44.534;18.678;2024-03-23T07:46:06;24.27;;;14.40;;
80732;SDS011;70130;44.534;18.678;2024-03-23T07:48:32;26.52;;;14.75;;
80732;SDS011;70130;44.534;18.678;2024-03-23T07:50:58;24.70;;;15.30;;
80732;SDS011;70130;44.534;18.678;2024-03-23T07:53:28;27.27;;;15.23;;
80732;SDS011;70130;44.534;18.678;2024-03-23T07:55:55;24.00;;;14.10;;
80732;SDS011;70130;44.534;18.678;2024-03-23T07:58:21;24.90;;;13.73;;
80732;SDS011;70130;44.534;18.678;2024-03-23T08:00:47;27.50;;;14.18;;
80732;SDS011;70130;44.534;18.678;2024-03-23T08:03:13;21.35;;;13.10;;
80732;SDS011;70130;44.534;18.678;2024-03-23T08:05:39;21.75;;;13.20;;
80732;SDS011;70130;44.534;18.678;2024-03-23T08:08:04;19.23;;;12.00;;
80732;SDS011;70130;44.534;18.678;2024-03-23T08:10:30;19.73;;;11.88;;
80732;SDS011;70130;44.534;18.678;2024-03-23T08:12:56;18.80;;;12.88;;
80732;SDS011;70130;44.534;18.678;2024-03-23T08:15:21;19.80;;;11.50;;
80732;SDS011;70130;44.534;18.678;2024-03-23T08:17:47;18.90;;;10.35;;
80732;SDS011;70130;44.534;18.678;2024-03-23T08:20:12;19.58;;;10.50;;
80732;SDS011;70130;44.534;18.678;2024-03-23T08:22:38;20.05;;;10.77;;
80732;SDS011;70130;44.534;18.678;2024-03-23T08:25:04;17.23;;;9.85;;
80732;SDS011;70130;44.534;18.678;2024-03-23T08:27:30;16.75;;;10.20;;
80732;SDS011;70130;44.534;18.678;2024-03-23T08:29:56;18.80;;;11.27;;
80732;SDS011;70130;44.534;18.678;2024-03-23T08:32:22;21.23;;;10.90;;
80732;SDS011;70130;44.534;18.678;2024-03-23T08:34:50;21.65;;;11.60;;
80732;SDS011;70130;44.534;18.678;2024-03-23T08:37:16;18.75;;;10.90;;
80732;SDS011;70130;44.534;18.678;2024-03-23T08:39:44;19.92;;;10.88;;
80732;SDS011;70130;44.534;18.678;2024-03-23T08:42:10;22.23;;;10.68;;
80732;SDS011;70130;44.534;18.678;2024-03-23T08:44:35;19.98;;;11.52;;
80732;SDS011;70130;44.534;18.678;2024-03-23T08:47:01;18.27;;;11.02;;
80732;SDS011;70130;44.534;18.678;2024-03-23T08:49:27;20.35;;;11.18;;
80732;SDS011;70130;44.534;18.678;2024-03-23T08:51:53;18.88;;;11.10;;
80732;SDS011;70130;44.534;18.678;2024-03-23T08:54:19;19.98;;;11.60;;
80732;SDS011;70130;44.534;18.678;2024-03-23T08:56:45;19.02;;;12.35;;
80732;SDS011;70130;44.534;18.678;2024-03-23T08:59:11;16.70;;;10.25;;
80732;SDS011;70130;44.534;18.678;2024-03-23T09:01:37;19.45;;;10.60;;
80732;SDS011;70130;44.534;18.678;2024-03-23T09:04:03;16.10;;;10.07;;
80732;SDS011;70130;44.534;18.678;2024-03-23T09:06:29;15.05;;;9.63;;
80732;SDS011;70130;44.534;18.678;2024-03-23T09:08:55;16.80;;;10.40;;
80732;SDS011;70130;44.534;18.678;2024-03-23T09:11:20;16.85;;;9.02;;
80732;SDS011;70130;44.534;18.678;2024-03-23T09:13:46;16.33;;;9.23;;
80732;SDS011;70130;44.534;18.678;2024-03-23T09:16:11;17.23;;;10.68;;
80732;SDS011;70130;44.534;18.678;2024-03-23T09:18:38;19.80;;;10.80;;
80732;SDS011;70130;44.534;18.678;2024-03-23T09:21:04;16.08;;;10.20;;
80732;SDS011;70130;44.534;18.678;2024-03-23T09:23:36;13.68;;;9.27;;
80732;SDS011;70130;44.534;18.678;2024-03-23T09:26:05;15.93;;;8.52;;
80732;SDS011;70130;44.534;18.678;2024-03-23T09:28:32;15.65;;;8.77;;
80732;SDS011;70130;44.534;18.678;2024-03-23T09:31:05;17.83;;;8.82;;
80732;SDS011;70130;44.534;18.678;2024-03-23T09:33:32;16.13;;;8.27;;
80732;SDS011;70130;44.534;18.678;2024-03-23T09:36:02;12.73;;;7.85;;
80732;SDS011;70130;44.534;18.678;2024-03-23T09:38:28;13.00;;;7.83;;
80732;SDS011;70130;44.534;18.678;2024-03-23T09:40:54;12.50;;;7.45;;
80732;SDS011;70130;44.534;18.678;2024-03-23T09:43:20;13.05;;;7.10;;
80732;SDS011;70130;44.534;18.678;2024-03-23T09:45:45;12.55;;;7.90;;
80732;SDS011;70130;44.534;18.678;2024-03-23T09:48:12;10.07;;;6.30;;
80732;SDS011;70130;44.534;18.678;2024-03-23T09:50:41;12.27;;;7.88;;
80732;SDS011;70130;44.534;18.678;2024-03-23T09:53:09;15.27;;;8.35;;
80732;SDS011;70130;44.534;18.678;2024-03-23T09:55:36;8.43;;;4.97;;
80732;SDS011;70130;44.534;18.678;2024-03-23T09:58:03;15.15;;;5.88;;
80732;SDS011;70130;44.534;18.678;2024-03-23T10:00:30;8.55;;;5.30;;
80732;SDS011;70130;44.534;18.678;2024-03-23T10:02:56;11.80;;;6.10;;
80732;SDS011;70130;44.534;18.678;2024-03-23T10:05:27;15.20;;;6.30;;
80732;SDS011;70130;44.534;18.678;2024-03-23T10:10:39;8.35;;;4.93;;
80732;SDS011;70130;44.534;18.678;2024-03-23T10:13:05;6.10;;;5.07;;
80732;SDS011;70130;44.534;18.678;2024-03-23T10:15:32;11.45;;;5.40;;
80732;SDS011;70130;44.534;18.678;2024-03-23T10:18:04;8.00;;;5.65;;
80732;SDS011;70130;44.534;18.678;2024-03-23T10:20:43;7.13;;;5.60;;
80732;SDS011;70130;44.534;18.678;2024-03-23T10:23:15;7.88;;;4.90;;
80732;SDS011;70130;44.534;18.678;2024-03-23T10:25:42;12.98;;;5.35;;
80732;SDS011;70130;44.534;18.678;2024-03-23T10:28:08;10.88;;;4.97;;
80732;SDS011;70130;44.534;18.678;2024-03-23T10:30:34;7.63;;;5.57;;
80732;SDS011;70130;44.534;18.678;2024-03-23T10:33:07;7.05;;;4.45;;
80732;SDS011;70130;44.534;18.678;2024-03-23T10:35:34;8.35;;;4.05;;
80732;SDS011;70130;44.534;18.678;2024-03-23T10:38:01;8.52;;;4.72;;
80732;SDS011;70130;44.534;18.678;2024-03-23T10:40:29;6.32;;;4.30;;
80732;SDS011;70130;44.534;18.678;2024-03-23T10:42:55;6.45;;;4.65;;
80732;SDS011;70130;44.534;18.678;2024-03-23T10:45:23;6.25;;;4.50;;
80732;SDS011;70130;44.534;18.678;2024-03-23T10:47:49;7.07;;;4.40;;
80732;SDS011;70130;44.534;18.678;2024-03-23T10:50:14;8.30;;;4.60;;
80732;SDS011;70130;44.534;18.678;2024-03-23T10:52:41;7.38;;;4.57;;
80732;SDS011;70130;44.534;18.678;2024-03-23T10:55:12;9.73;;;4.72;;
80732;SDS011;70130;44.534;18.678;2024-03-23T10:57:58;6.95;;;4.50;;
80732;SDS011;70130;44.534;18.678;2024-03-23T11:00:25;6.00;;;4.25;;
80732;SDS011;70130;44.534;18.678;2024-03-23T11:02:51;7.35;;;4.60;;
80732;SDS011;70130;44.534;18.678;2024-03-23T11:07:50;7.43;;;4.82;;
80732;SDS011;70130;44.534;18.678;2024-03-23T11:10:29;6.00;;;4.50;;
80732;SDS011;70130;44.534;18.678;2024-03-23T11:12:56;6.50;;;4.63;;
80732;SDS011;70130;44.534;18.678;2024-03-23T11:15:22;7.47;;;4.72;;
80732;SDS011;70130;44.534;18.678;2024-03-23T11:18:04;6.25;;;4.38;;
80732;SDS011;70130;44.534;18.678;2024-03-23T11:20:34;5.05;;;3.80;;
80732;SDS011;70130;44.534;18.678;2024-03-23T11:23:00;5.85;;;3.90;;
80732;SDS011;70130;44.534;18.678;2024-03-23T11:25:27;9.18;;;4.15;;
80732;SDS011;70130;44.534;18.678;2024-03-23T11:27:54;7.18;;;4.00;;
80732;SDS011;70130;44.534;18.678;2024-03-23T11:30:26;6.65;;;4.32;;
80732;SDS011;70130;44.534;18.678;2024-03-23T11:32:55;6.53;;;4.30;;
80732;SDS011;70130;44.534;18.678;2024-03-23T11:35:31;8.77;;;3.75;;
80732;SDS011;70130;44.534;18.678;2024-03-23T11:38:12;5.75;;;3.67;;
80732;SDS011;70130;44.534;18.678;2024-03-23T11:43:05;6.82;;;3.65;;
80732;SDS011;70130;44.534;18.678;2024-03-23T11:45:35;4.38;;;2.90;;
80732;SDS011;70130;44.534;18.678;2024-03-23T11:48:03;6.75;;;3.55;;
80732;SDS011;70130;44.534;18.678;2024-03-23T11:50:33;4.50;;;3.30;;
80732;SDS011;70130;44.534;18.678;2024-03-23T11:53:06;4.88;;;3.20;;
80732;SDS011;70130;44.534;18.678;2024-03-23T11:58:10;8.27;;;3.60;;
80732;SDS011;70130;44.534;18.678;2024-03-23T12:00:36;4.45;;;3.22;;
80732;SDS011;70130;44.534;18.678;2024-03-23T12:03:02;6.07;;;3.22;;
80732;SDS011;70130;44.534;18.678;2024-03-23T12:05:29;4.70;;;3.03;;
80732;SDS011;70130;44.534;18.678;2024-03-23T12:07:55;4.70;;;2.65;;
80732;SDS011;70130;44.534;18.678;2024-03-23T12:10:40;5.38;;;3.67;;
80732;SDS011;70130;44.534;18.678;2024-03-23T12:13:05;5.22;;;3.00;;
80732;SDS011;70130;44.534;18.678;2024-03-23T12:15:31;5.55;;;2.75;;
80732;SDS011;70130;44.534;18.678;2024-03-23T12:18:06;7.70;;;3.08;;
80732;SDS011;70130;44.534;18.678;2024-03-23T12:20:33;5.72;;;3.33;;
80732;SDS011;70130;44.534;18.678;2024-03-23T12:23:07;4.55;;;2.85;;
80732;SDS011;70130;44.534;18.678;2024-03-23T12:25:35;4.45;;;3.30;;
80732;SDS011;70130;44.534;18.678;2024-03-23T12:28:01;5.03;;;3.20;;
80732;SDS011;70130;44.534;18.678;2024-03-23T12:30:27;4.80;;;3.40;;
80732;SDS011;70130;44.534;18.678;2024-03-23T12:32:53;5.45;;;3.60;;
80732;SDS011;70130;44.534;18.678;2024-03-23T12:35:19;7.07;;;3.80;;
80732;SDS011;70130;44.534;18.678;2024-03-23T12:37:45;6.50;;;3.90;;
80732;SDS011;70130;44.534;18.678;2024-03-23T12:40:11;6.95;;;3.78;;
80732;SDS011;70130;44.534;18.678;2024-03-23T12:42:36;6.35;;;3.90;;
80732;SDS011;70130;44.534;18.678;2024-03-23T12:45:02;6.45;;;3.60;;
80732;SDS011;70130;44.534;18.678;2024-03-23T12:47:30;7.43;;;3.58;;
80732;SDS011;70130;44.534;18.678;2024-03-23T12:49:55;7.85;;;3.75;;
80732;SDS011;70130;44.534;18.678;2024-03-23T12:52:21;6.78;;;3.63;;
80732;SDS011;70130;44.534;18.678;2024-03-23T12:54:49;7.10;;;4.13;;
80732;SDS011;70130;44.534;18.678;2024-03-23T12:57:15;5.60;;;3.70;;
80732;SDS011;70130;44.534;18.678;2024-03-23T12:59:40;6.32;;;4.07;;
80732;SDS011;70130;44.534;18.678;2024-03-23T13:02:06;5.47;;;3.47;;
80732;SDS011;70130;44.534;18.678;2024-03-23T13:04:32;4.97;;;3.45;;
80732;SDS011;70130;44.534;18.678;2024-03-23T13:06:58;6.25;;;3.72;;
80732;SDS011;70130;44.534;18.678;2024-03-23T13:09:23;10.45;;;4.57;;
80732;SDS011;70130;44.534;18.678;2024-03-23T13:11:49;8.23;;;4.20;;
80732;SDS011;70130;44.534;18.678;2024-03-23T13:14:14;6.53;;;3.83;;
80732;SDS011;70130;44.534;18.678;2024-03-23T13:16:42;10.90;;;4.78;;
80732;SDS011;70130;44.534;18.678;2024-03-23T13:19:07;7.38;;;4.80;;
80732;SDS011;70130;44.534;18.678;2024-03-23T13:21:33;5.53;;;4.00;;
80732;SDS011;70130;44.534;18.678;2024-03-23T13:23:58;11.98;;;5.80;;
80732;SDS011;70130;44.534;18.678;2024-03-23T13:26:24;7.63;;;4.85;;
80732;SDS011;70130;44.534;18.678;2024-03-23T13:28:50;4.97;;;3.80;;
80732;SDS011;70130;44.534;18.678;2024-03-23T13:31:17;6.65;;;4.70;;
80732;SDS011;70130;44.534;18.678;2024-03-23T13:33:42;6.82;;;4.40;;
80732;SDS011;70130;44.534;18.678;2024-03-23T13:36:09;7.10;;;4.50;;
80732;SDS011;70130;44.534;18.678;2024-03-23T13:38:35;7.82;;;4.15;;
80732;SDS011;70130;44.534;18.678;2024-03-23T13:41:00;7.07;;;4.63;;
80732;SDS011;70130;44.534;18.678;2024-03-23T13:43:29;8.77;;;5.15;;
80732;SDS011;70130;44.534;18.678;2024-03-23T13:45:56;6.93;;;4.72;;
80732;SDS011;70130;44.534;18.678;2024-03-23T13:48:23;9.10;;;4.50;;
80732;SDS011;70130;44.534;18.678;2024-03-23T13:50:59;8.57;;;4.57;;
80732;SDS011;70130;44.534;18.678;2024-03-23T13:53:28;12.70;;;5.53;;
80732;SDS011;70130;44.534;18.678;2024-03-23T13:55:54;8.85;;;4.93;;
80732;SDS011;70130;44.534;18.678;2024-03-23T13:58:20;6.90;;;4.43;;
80732;SDS011;70130;44.534;18.678;2024-03-23T14:00:46;9.88;;;5.45;;
80732;SDS011;70130;44.534;18.678;2024-03-23T14:03:11;8.93;;;5.10;;
80732;SDS011;70130;44.534;18.678;2024-03-23T14:05:38;10.18;;;5.63;;
80732;SDS011;70130;44.534;18.678;2024-03-23T14:08:08;7.28;;;5.00;;
80732;SDS011;70130;44.534;18.678;2024-03-23T14:10:35;7.97;;;5.90;;
80732;SDS011;70130;44.534;18.678;2024-03-23T14:13:01;8.32;;;5.30;;
80732;SDS011;70130;44.534;18.678;2024-03-23T14:15:28;9.38;;;6.63;;
80732;SDS011;70130;44.534;18.678;2024-03-23T14:17:55;7.47;;;5.80;;
80732;SDS011;70130;44.534;18.678;2024-03-23T14:20:21;7.85;;;6.40;;
80732;SDS011;70130;44.534;18.678;2024-03-23T14:22:47;8.43;;;6.57;;
80732;SDS011;70130;44.534;18.678;2024-03-23T14:25:13;8.80;;;5.95;;
80732;SDS011;70130;44.534;18.678;2024-03-23T14:27:39;9.43;;;6.63;;
80732;SDS011;70130;44.534;18.678;2024-03-23T14:30:05;8.73;;;6.05;;
80732;SDS011;70130;44.534;18.678;2024-03-23T14:32:31;8.95;;;6.80;;
80732;SDS011;70130;44.534;18.678;2024-03-23T14:35:02;8.57;;;6.18;;
80732;SDS011;70130;44.534;18.678;2024-03-23T14:37:29;12.03;;;6.13;;
80732;SDS011;70130;44.534;18.678;2024-03-23T14:39:57;9.27;;;6.63;;
80732;SDS011;70130;44.534;18.678;2024-03-23T14:42:23;11.02;;;6.35;;
80732;SDS011;70130;44.534;18.678;2024-03-23T14:44:49;9.68;;;6.22;;
80732;SDS011;70130;44.534;18.678;2024-03-23T14:47:16;8.15;;;6.40;;
80732;SDS011;70130;44.534;18.678;2024-03-23T14:49:43;8.30;;;6.18;;
80732;SDS011;70130;44.534;18.678;2024-03-23T14:52:15;11.35;;;6.50;;
80732;SDS011;70130;44.534;18.678;2024-03-23T14:54:44;10.18;;;6.35;;
80732;SDS011;70130;44.534;18.678;2024-03-23T14:57:09;10.77;;;5.18;;
80732;SDS011;70130;44.534;18.678;2024-03-23T14:59:35;7.70;;;5.65;;
80732;SDS011;70130;44.534;18.678;2024-03-23T15:02:03;11.68;;;6.57;;
80732;SDS011;70130;44.534;18.678;2024-03-23T15:04:30;10.07;;;6.10;;
80732;SDS011;70130;44.534;18.678;2024-03-23T15:06:55;8.52;;;5.22;;
80732;SDS011;70130;44.534;18.678;2024-03-23T15:09:21;6.85;;;5.03;;
80732;SDS011;70130;44.534;18.678;2024-03-23T15:11:46;7.63;;;6.15;;
80732;SDS011;70130;44.534;18.678;2024-03-23T15:14:12;7.68;;;5.25;;
80732;SDS011;70130;44.534;18.678;2024-03-23T15:16:38;8.90;;;5.30;;
80732;SDS011;70130;44.534;18.678;2024-03-23T15:19:03;8.27;;;5.57;;